Hargeisa, Somalia
Current Conditions -  °F | °C
As of 4:55 PM on Wednesday 22 Oct 2014 (Local Time) from KQRH Reporting Station
Clear Clear  
Wind Chill: 86°   Ceiling: Unl
Heat Index: 90°   Visibility: 6mi
Dew Point: 69°   Wind: 7mph
Humidity: 57%   Direction: 80°E
Pressure: 29.9"   Gusts: NA
Location:  9.51°N, 44.08°E
Report Text: KQRH 221355Z AUTO 08006KT 9999 CLR 30/21 A2990 RMK AO2 SLP124 T03010207
Loading
Personal Weather Stations






























Interactive Weather Map
Tropical Storm Tracking
New forecast layout! Learn more

10-Day Weather Forecast

Advertisements
Track Severe Weather on mobile